Chicago, IL

12:58 PM CDT on October 30, 2014 (GMT -0500)
West Loop - Old St. Pats | Change Station
CLOSE
Current Station
Personal Weather Station
Location: Chicago, IL
Elevation: 548 ft
Nearby Weather Stations
Active Advisory: Lakeshore Flood Advisory

Elev 548 ft 41.88 °N, 87.64 °W | Updated 41 seconds ago

Mostly Cloudy
Mostly Cloudy
50.4 °F
Feels Like 50.4 °F
N
4.0
Wind Variable Wind from WNW
Gusts 8.0 mph

Today
High -- | Low -- °F
--% Chance of Precip.
Yesterday
High -- | Low -- °F
Precip. -- in
7:20 AM 5:47 PM
Waxing Crescent, 46% visible
Pressure 30.11 in
Visibility 10.0 miles
Clouds Few 3500 ft
Mostly Cloudy 10000 ft
Mostly Cloudy 20000 ft
Overcast 25000 ft
Dew Point 37 °F
Humidity 59%
Rainfall 0.00 in
Snow Depth Not available.
UV 1 out of 12
Pollen .20 out of 12
Air Quality Not available.
Flu Activity Not available.
METAR KMDW 301753Z 22009KT 10SM FEW035 BKN100 BKN200 OVC250 11/02 A3010 RMK AO2 SLP195 T01060017 10106 20028 58015

More Conditions Fewer Conditions

Pressure 30.11 in
Visibility 10.0 miles
Clouds Few 3500 ft
Mostly Cloudy 10000 ft
Mostly Cloudy 20000 ft
Overcast 25000 ft
Dew Point 37 °F
Humidity 59%
Rainfall 0.00 in
Snow Depth Not available.
UV 1 out of 12
Pollen .20 out of 12
Air Quality Not available.
Flu Activity Not available.
METAR KMDW 301753Z 22009KT 10SM FEW035 BKN100 BKN200 OVC250 11/02 A3010 RMK AO2 SLP195 T01060017 10106 20028 58015

More Conditions Fewer Conditions

10-Day Weather Forecast

Almanac

Astronomy

Oct. 30, 2014 Rise Set
Actual Time
Civil Twilight
Nautical Twilight
Astronomical Twilight
Moon
Length of Visible Light
Length of Day
Tomorrow will be .
, % of the Moon is Illuminated

Today's Extremes

State Highs State Lows

Community

WunderPhotos

Upload Photos

1,766,409 photos uploaded!

WunderBlogs® & News

Nearby

Air Quality

  Air Quality AQ Index Pollutant
Not available.

Snow Depth

Station Depth Elevation

Earthquake Activity

City Distance Mag. Time & Date
Minimum magnitude displayed is 2.5.

Coastal Water Temperatures

Place Temperature

Nearby Weather Stations